Content
SEND FEEDBACK

Daily
Averages
Monthly
Summary
United States of America

ELKHART, KANSAS


Home > North America > United States > Kansas
Elevation: 358 feet     Latitude: 37 02N     Longitude: 102 04W

WEATHER
 
SELECT A DAY
Number of Records: 435,960;   Date Range: 1/1/95 - 8/28/14
 
SHARE

PRINT THIS DATA

[ ← Previous Day ]
WEATHER ALMANAC - JANUARY 23, 2013
[ Next Day → ]
[ °C ]   °F
Weather ElementAverageHighLow
Temperature44.1 °F73.4 °F (3:08 pm)27 °F (1:28 am)
Dewpoint16.7 °F21 °F (11:08 am)11.1 °F (8:08 am)
Humidity39.4 %64 % (1:28 am)11 % (1:48 pm)
Wind Speed7.5 mph11.5 mph (5:08 pm)
Weather ElementAverage
Wind DirectionSSW (197.5 °)

Weather ElementTotal
Precipitation---
Heating Degree Days14.8 (Base 65)
Growing Degree Days0.2 (Base 50)
Averaged from 71 records on January 23, 2013
WEATHER CONDITIONS BREAKOUT
WIND DIRECTION BREAKOUT
WEATHER BY HOUR - JANUARY 23, 2013
[ °C ]   °F
Local TimeTemperatureDewpointHumidityBarometerVisibilityWind DirectionWind SpeedGust SpeedPrecipitationEventsConditions
12:28 AM30.0 °F16.2 °F56 %WSW (240°)2.3 mph
12:48 AM28.9 °F16.2 °F59 %WSW (240°)5.8 mph
1:08 AM28.0 °F16.2 °F61 %West (260°)3.5 mph
1:28 AM27.0 °F16.2 °F64 %WSW (250°)3.5 mph
1:48 AM28.0 °F16.2 °F61 %WSW (240°)6.9 mph
2:08 AM32.0 °F20.1 °F62 %WSW (240°)6.9 mph
2:28 AM30.0 °F18.1 °F61 %West (260°)5.8 mph
2:48 AM30.9 °F18.1 °F59 %West (270°)8.1 mph
3:08 AM30.9 °F18.1 °F59 %West (260°)10.4 mph
3:28 AM30.9 °F18.1 °F59 %West (280°)5.8 mph
3:48 AM30.9 °F17.1 °F57 %West (260°)8.1 mph
4:08 AM32.0 °F17.1 °F54 %West (260°)9.2 mph
4:28 AM30.9 °F16.2 °F54 %West (260°)10.4 mph
4:48 AM30.0 °F16.2 °F56 %West (270°)8.1 mph
5:08 AM30.0 °F15.1 °F54 %West (270°)6.9 mph
5:28 AM28.9 °F15.1 °F56 %West (260°)9.2 mph
5:48 AM30.0 °F15.1 °F54 %West (260°)10.4 mph
6:08 AM28.9 °F14.0 °F54 %West (260°)10.4 mph
6:28 AM28.9 °F14.0 °F54 %West (260°)10.4 mph
6:48 AM30.0 °F14.0 °F51 %West (260°)8.1 mph
7:08 AM28.9 °F14.0 °F54 %West (270°)8.1 mph
7:28 AM28.9 °F12.0 °F49 %West (260°)9.2 mph
7:48 AM28.9 °F12.0 °F49 %West (260°)6.9 mph
8:08 AM28.0 °F11.1 °F49 %West (270°)10.4 mph
8:28 AM32.0 °F12.0 °F44 %West (260°)9.2 mph
8:48 AM35.1 °F14.0 °F42 %West (260°)9.2 mph
9:08 AM36.0 °F16.2 °F45 %West (260°)8.1 mph
9:28 AM39.0 °F18.1 °F43 %West (270°)6.9 mph
9:48 AM42.1 °F18.1 °F38 %West (260°)9.2 mph
10:08 AM43.0 °F19.0 °F38 %West (270°)9.2 mph
10:28 AM46.0 °F19.0 °F34 %West (270°)8.1 mph
10:48 AM50.0 °F20.1 °F31 %West (260°)8.1 mph
11:08 AM54.0 °F21.0 °F28 %West (260°)3.5 mph
11:28 AM57.9 °F21.0 °F24 %West (270°)5.8 mph
11:48 AM61.0 °F18.1 °F19 %WSW (240°)4.6 mph
12:08 PM63.0 °F16.2 °F16 %SW (230°)5.8 mph
12:28 PM66.0 °F15.1 °F14 %WSW (240°)4.6 mph
12:48 PM68.0 °F15.1 °F13 %SW (220°)5.8 mph
1:08 PM69.1 °F14.0 °F12 %WSW (240°)6.9 mph
1:28 PM69.1 °F13.1 °F12 %WSW (240°)6.9 mph
1:48 PM71.1 °F14.0 °F11 %SW (220°)5.8 mph
2:08 PM71.1 °F14.0 °F11 %WSW (240°)5.8 mph
2:28 PM71.1 °F14.0 °F11 %West (260°)4.6 mph
2:48 PM71.1 °F14.0 °F11 %West (270°)2.3 mph
3:08 PM73.4 °F15.8 °F11 %SW (220°)3.5 mph
3:28 PM72.0 °F15.1 °F11 %SW (220°)4.6 mph
3:48 PM71.1 °F14.0 °F11 %SSW (200°)3.5 mph
4:08 PM69.1 °F14.0 °F12 %South (170°)2.3 mph
4:28 PM68.0 °F15.1 °F13 %SSE (160°)4.6 mph
4:48 PM66.9 °F15.1 °F14 %SE (140°)4.6 mph
5:08 PM66.0 °F19.0 °F17 %ESE (120°)11.5 mph
5:28 PM61.0 °F20.1 °F21 %ESE (120°)11.5 mph
5:48 PM55.9 °F19.0 °F24 %SE (130°)10.4 mph
6:08 PM50.0 °F18.1 °F28 %SE (130°)9.2 mph
6:28 PM48.9 °F17.1 °F28 %SE (130°)9.2 mph
6:48 PM45.0 °F15.1 °F30 %East (100°)11.5 mph
7:08 PM45.0 °F19.0 °F36 %East (80°)6.9 mph
7:28 PM43.0 °F20.1 °F40 %ESE (110°)8.1 mph
7:48 PM39.9 °F18.1 °F42 %ESE (120°)9.2 mph
8:08 PM39.9 °F17.1 °F40 %East (100°)8.1 mph
8:28 PM41.0 °F19.0 °F41 %East (80°)5.8 mph
8:48 PM39.0 °F18.1 °F43 %NNE (30°)5.8 mph
9:08 PM39.0 °F19.0 °F45 %NE (40°)8.1 mph
9:28 PM37.9 °F19.0 °F47 %NNE (30°)9.2 mph
9:48 PM36.0 °F18.1 °F48 %NNE (30°)9.2 mph
10:08 PM35.1 °F19.0 °F52 %NE (40°)9.2 mph
10:28 PM34.0 °F19.0 °F54 %NE (50°)10.4 mph
10:48 PM33.1 °F20.1 °F59 %NE (40°)9.2 mph
11:08 PM32.0 °F19.0 °F59 %NE (50°)11.5 mph
11:28 PM30.9 °F19.0 °F61 %ENE (60°)10.4 mph
11:48 PM30.0 °F19.0 °F64 %ENE (60°)8.1 mph
Hourly data recorded from KEHA, located miles away from Elkhart, Kansas







STORIES FROM OUR PARTNERS